Time;durP1;ratioP1;P1;durP2;ratioP2;P2;SDS_P1;SDS_P2;PMS_P1;PMS_P2;Temp;Humidity;BMP_temperature;BMP_pressure;BME280_temperature;BME280_humidity;BME280_pressure;Samples;Min_cycle;Max_cycle;Signal;HPM_P1;HPM_P2
2021/10/04 00:00:08;;;;;;;0.30;0.22;;;;;;;-142.37;100.00;59669.53;5019381;28;20039;-69
2021/10/04 00:02:35;;;;;;;0.85;0.35;;;;;;;-142.37;100.00;59669.53;5035344;28;20029;-69
2021/10/04 00:05:00;;;;;;;0.68;0.30;;;;;;;-142.37;100.00;59669.53;5035579;28;20369;-70
2021/10/04 00:07:27;;;;;;;2.53;0.30;;;;;;;-142.37;100.00;59669.53;5035618;28;20480;-69
2021/10/04 00:09:53;;;;;;;0.70;0.35;;;;;;;-142.37;100.00;59669.53;5035567;28;20361;-69
2021/10/04 00:12:18;;;;;;;0.52;0.38;;;;;;;-142.37;100.00;59669.53;5035344;28;20028;-69
2021/10/04 00:14:43;;;;;;;0.40;0.40;;;;;;;-142.37;100.00;59669.53;5035306;28;20052;-69
2021/10/04 00:17:09;;;;;;;0.98;0.63;;;;;;;-142.37;100.00;59669.53;5034919;28;20036;-70
2021/10/04 00:19:34;;;;;;;0.45;0.35;;;;;;;-142.37;100.00;59669.53;5035380;28;20029;-69
2021/10/04 00:22:00;;;;;;;1.25;0.50;;;;;;;-142.37;100.00;59669.53;5035362;28;20025;-70
2021/10/04 00:24:25;;;;;;;0.80;0.63;;;;;;;-142.37;100.00;59669.53;5035105;28;20026;-70
2021/10/04 00:26:52;;;;;;;0.68;0.40;;;;;;;-142.37;100.00;59669.53;5035212;28;20372;-69
2021/10/04 00:29:19;;;;;;;0.43;0.43;;;;;;;-142.37;100.00;59669.53;5017297;28;20025;-69
2021/10/04 00:31:48;;;;;;;1.10;0.70;;;;;;;-142.37;100.00;59669.53;5017412;28;20029;-69
2021/10/04 00:34:13;;;;;;;0.55;0.40;;;;;;;-142.37;100.00;59669.53;5034960;28;20021;-69
2021/10/04 00:36:39;;;;;;;1.02;0.40;;;;;;;-142.37;100.00;59669.53;5035008;28;20029;-69
2021/10/04 00:39:05;;;;;;;2.53;0.40;;;;;;;-142.37;100.00;59669.53;5017016;28;20412;-69
2021/10/04 00:41:31;;;;;;;0.30;0.30;;;;;;;-142.37;100.00;59669.53;5034908;28;20448;-69
2021/10/04 00:43:57;;;;;;;0.93;0.45;;;;;;;-142.37;100.00;59669.53;5034869;28;20207;-69
2021/10/04 00:46:26;;;;;;;0.50;0.50;;;;;;;-142.37;100.00;59669.53;5034664;28;20480;-70
2021/10/04 00:48:53;;;;;;;0.30;0.30;;;;;;;-142.37;100.00;59669.53;5034731;28;20021;-70
2021/10/04 00:51:20;;;;;;;1.17;0.60;;;;;;;-142.37;100.00;59669.53;5016826;28;20014;-69
2021/10/04 00:53:48;;;;;;;0.40;0.40;;;;;;;-142.37;100.00;59669.53;5034412;28;20414;-69
2021/10/04 00:56:14;;;;;;;0.35;0.32;;;;;;;-142.37;100.00;59669.53;5016984;28;20025;-70
2021/10/04 00:58:40;;;;;;;0.57;0.50;;;;;;;-142.37;100.00;59669.53;5034686;28;20026;-69
2021/10/04 01:01:06;;;;;;;0.63;0.47;;;;;;;-142.37;100.00;59669.53;5034399;28;20104;-69
2021/10/04 01:03:32;;;;;;;0.93;0.40;;;;;;;-142.37;100.00;59669.53;5034108;28;20022;-69
2021/10/04 01:05:57;;;;;;;1.48;0.80;;;;;;;-142.37;100.00;59669.53;5034258;28;20467;-70
2021/10/04 01:08:23;;;;;;;0.65;0.40;;;;;;;-142.37;100.00;59669.53;5034465;28;20368;-69
2021/10/04 01:10:48;;;;;;;0.80;0.22;;;;;;;-142.37;100.00;59669.53;5034197;28;20032;-69
2021/10/04 01:13:15;;;;;;;0.50;0.25;;;;;;;-142.37;100.00;59669.53;5033919;28;20043;-69
2021/10/04 01:15:40;;;;;;;1.05;0.30;;;;;;;-142.37;100.00;59669.53;5034130;28;20036;-69
2021/10/04 01:18:06;;;;;;;0.45;0.30;;;;;;;-142.37;100.00;59669.53;5034297;28;20037;-69
2021/10/04 01:20:31;;;;;;;0.55;0.30;;;;;;;-142.37;100.00;59669.53;5034048;28;20028;-69
2021/10/04 01:22:57;;;;;;;0.47;0.30;;;;;;;-142.37;100.00;59669.53;5033748;28;20112;-69
2021/10/04 01:25:23;;;;;;;0.47;0.32;;;;;;;-142.37;100.00;59669.53;5034048;28;20025;-69
2021/10/04 01:27:49;;;;;;;0.40;0.40;;;;;;;-142.37;100.00;59669.53;5034082;28;20506;-70
2021/10/04 01:30:21;;;;;;;0.52;0.32;;;;;;;-142.37;100.00;59669.53;5033917;28;20033;-69
2021/10/04 01:32:47;;;;;;;0.73;0.47;;;;;;;-142.37;100.00;59669.53;5033823;28;20025;-69
2021/10/04 01:35:12;;;;;;;1.00;0.30;;;;;;;-142.37;100.00;59669.53;5033812;28;20032;-69
2021/10/04 01:37:38;;;;;;;0.60;0.43;;;;;;;-142.37;100.00;59669.53;5033708;28;20403;-69
2021/10/04 01:40:05;;;;;;;0.40;0.20;;;;;;;-142.37;100.00;59669.53;5033780;28;20034;-69
2021/10/04 01:42:31;;;;;;;1.73;0.43;;;;;;;-142.37;100.00;59669.53;5033491;28;20029;-69
2021/10/04 01:44:58;;;;;;;0.90;0.50;;;;;;;-142.37;100.00;59669.53;5033456;28;20025;-69
2021/10/04 01:47:24;;;;;;;2.70;0.55;;;;;;;-142.37;100.00;59669.53;5033583;28;20029;-69
2021/10/04 01:49:49;;;;;;;1.05;0.38;;;;;;;-142.37;100.00;59669.53;5033465;28;20021;-69
2021/10/04 01:52:14;;;;;;;0.40;0.40;;;;;;;-142.37;100.00;59669.53;5033786;28;20468;-69
2021/10/04 01:54:41;;;;;;;0.60;0.40;;;;;;;-142.37;100.00;59669.53;5033561;28;20025;-69
2021/10/04 01:57:08;;;;;;;0.50;0.38;;;;;;;-142.37;100.00;59669.53;5033555;28;20029;-69
2021/10/04 01:59:34;;;;;;;0.30;0.30;;;;;;;-142.37;100.00;59669.53;5015957;28;20111;-69
2021/10/04 02:01:59;;;;;;;0.95;0.35;;;;;;;-142.37;100.00;59669.53;5033484;28;20060;-69
2021/10/04 02:04:24;;;;;;;0.30;0.30;;;;;;;-142.37;100.00;59669.53;5033319;28;20026;-69
2021/10/04 02:06:51;;;;;;;0.73;0.40;;;;;;;-142.37;100.00;59669.53;5032737;28;20025;-68
2021/10/04 02:09:18;;;;;;;0.65;0.40;;;;;;;-142.37;100.00;59669.53;5033266;28;20036;-68
2021/10/04 02:11:43;;;;;;;1.20;0.52;;;;;;;-142.37;100.00;59669.53;5033554;28;20372;-69
2021/10/04 02:14:09;;;;;;;1.17;0.40;;;;;;;-142.37;100.00;59669.53;5032801;28;20045;-70
2021/10/04 02:16:34;;;;;;;0.98;0.40;;;;;;;-142.37;100.00;59669.53;5033302;28;20018;-69
2021/10/04 02:18:59;;;;;;;0.65;0.30;;;;;;;-142.37;100.00;59669.53;5033319;28;20053;-70
2021/10/04 02:21:25;;;;;;;0.73;0.40;;;;;;;-142.37;100.00;59669.53;5032912;28;20057;-69
2021/10/04 02:23:50;;;;;;;0.55;0.50;;;;;;;-142.37;100.00;59669.53;5033204;28;20026;-69
2021/10/04 02:26:15;;;;;;;1.50;0.30;;;;;;;-142.37;100.00;59669.53;5033154;28;20075;-69
2021/10/04 02:28:41;;;;;;;0.28;0.20;;;;;;;-142.37;100.00;59669.53;5032856;28;20393;-69
2021/10/04 02:31:06;;;;;;;1.15;0.30;;;;;;;-142.37;100.00;59669.53;5033178;28;20025;-69
2021/10/04 02:33:31;;;;;;;0.77;0.40;;;;;;;-142.37;100.00;59669.53;5033085;28;20037;-69
2021/10/04 02:35:57;;;;;;;0.38;0.38;;;;;;;-142.37;100.00;59669.53;5033167;28;20067;-69
2021/10/04 02:38:23;;;;;;;0.50;0.30;;;;;;;-142.37;100.00;59669.53;5032751;28;20525;-69
2021/10/04 02:40:49;;;;;;;3.22;0.38;;;;;;;-142.37;100.00;59669.53;5033003;28;20029;-69
2021/10/04 02:43:18;;;;;;;0.55;0.40;;;;;;;-142.37;100.00;59669.53;5031532;28;20025;-69
2021/10/04 02:45:46;;;;;;;0.65;0.43;;;;;;;-142.37;100.00;59669.53;5033096;28;20025;-69
2021/10/04 02:48:11;;;;;;;0.52;0.52;;;;;;;-142.37;100.00;59669.53;5015334;28;20022;-69
2021/10/04 02:50:37;;;;;;;1.05;0.47;;;;;;;-142.37;100.00;59669.53;5033097;28;20527;-69
2021/10/04 02:53:02;;;;;;;0.52;0.30;;;;;;;-142.37;100.00;59669.53;5032967;28;20017;-70
2021/10/04 02:55:27;;;;;;;0.70;0.50;;;;;;;-142.37;100.00;59669.53;5033069;28;20025;-70
2021/10/04 02:57:53;;;;;;;0.93;0.50;;;;;;;-142.37;100.00;59669.53;5033126;28;20044;-70
2021/10/04 03:00:18;;;;;;;0.30;0.30;;;;;;;-142.37;100.00;59669.53;5032630;28;20053;-69
2021/10/04 03:02:44;;;;;;;0.45;0.45;;;;;;;-142.37;100.00;59669.53;5032571;28;20484;-69
2021/10/04 03:05:09;;;;;;;1.60;0.70;;;;;;;-142.37;100.00;59669.53;5032744;28;20040;-69
2021/10/04 03:07:36;;;;;;;0.22;0.20;;;;;;;-142.37;100.00;59669.53;5032619;28;20025;-69
2021/10/04 03:10:02;;;;;;;1.08;0.32;;;;;;;-142.37;100.00;59669.53;5032924;28;20075;-69
2021/10/04 03:12:27;;;;;;;0.82;0.22;;;;;;;-142.37;100.00;59669.53;5032590;28;20036;-69
2021/10/04 03:14:53;;;;;;;0.52;0.20;;;;;;;-142.37;100.00;59669.53;5032512;28;20396;-69
2021/10/04 03:17:18;;;;;;;0.30;0.30;;;;;;;-142.37;100.00;59669.53;5034220;28;20033;-69
2021/10/04 03:19:44;;;;;;;1.02;0.40;;;;;;;-142.37;100.00;59669.53;5036832;28;20069;-69
2021/10/04 03:22:09;;;;;;;1.83;0.30;;;;;;;-142.37;100.00;59669.53;5036040;28;20029;-70
2021/10/04 03:24:35;;;;;;;1.38;0.50;;;;;;;-142.37;100.00;59669.53;5036527;28;20028;-69
2021/10/04 03:27:00;;;;;;;0.52;0.40;;;;;;;-142.37;100.00;59669.53;5036200;28;20033;-69
2021/10/04 03:29:26;;;;;;;0.75;0.30;;;;;;;-142.37;100.00;59669.53;5036136;28;20365;-69
2021/10/04 03:31:52;;;;;;;1.00;0.30;;;;;;;-142.37;100.00;59669.53;5036288;28;20525;-69
2021/10/04 03:34:17;;;;;;;0.75;0.30;;;;;;;-142.37;100.00;59669.53;5035928;28;20053;-69
2021/10/04 03:36:45;;;;;;;0.30;0.30;;;;;;;-142.37;100.00;59669.53;5036319;28;20021;-69
2021/10/04 03:39:12;;;;;;;0.57;0.47;;;;;;;-142.37;100.00;59669.53;5036065;28;20030;-69
2021/10/04 03:41:38;;;;;;;0.40;0.30;;;;;;;-142.37;100.00;59669.53;5035970;28;20037;-70
2021/10/04 03:44:04;;;;;;;2.95;0.40;;;;;;;-142.37;100.00;59669.53;5018067;28;20408;-69
2021/10/04 03:46:31;;;;;;;0.88;0.22;;;;;;;-142.37;100.00;59669.53;5018224;28;20029;-69
2021/10/04 03:48:56;;;;;;;1.85;0.45;;;;;;;-142.37;100.00;59669.53;5035757;28;20409;-69
2021/10/04 03:51:22;;;;;;;0.85;0.30;;;;;;;-142.37;100.00;59669.53;5035452;28;20053;-69
2021/10/04 03:53:47;;;;;;;0.47;0.40;;;;;;;-142.37;100.00;59669.53;5036029;28;20048;-69
2021/10/04 03:56:13;;;;;;;0.40;0.20;;;;;;;-142.37;100.00;59669.53;5035679;28;20470;-69
2021/10/04 03:58:39;;;;;;;0.38;0.20;;;;;;;-142.37;100.00;59669.53;5035780;28;20055;-69
2021/10/04 04:01:04;;;;;;;0.60;0.40;;;;;;;-142.37;100.00;59669.53;5035648;28;20025;-69
2021/10/04 04:03:30;;;;;;;0.85;0.75;;;;;;;-142.37;100.00;59669.53;5035730;28;20479;-69
2021/10/04 04:05:55;;;;;;;0.75;0.40;;;;;;;-142.37;100.00;59669.53;5035807;28;20029;-69
2021/10/04 04:08:21;;;;;;;0.45;0.30;;;;;;;-142.37;100.00;59669.53;5035342;28;20364;-69
2021/10/04 04:10:47;;;;;;;1.17;0.30;;;;;;;-142.37;100.00;59669.53;5017863;28;20747;-68
2021/10/04 04:13:12;;;;;;;0.50;0.25;;;;;;;-142.37;100.00;59669.53;5034871;28;20056;-71
2021/10/04 04:15:37;;;;;;;0.45;0.13;;;;;;;-142.37;100.00;59669.53;5035493;28;20478;-69
2021/10/04 04:18:03;;;;;;;0.52;0.22;;;;;;;-142.37;100.00;59669.53;5035467;28;20053;-69
2021/10/04 04:20:28;;;;;;;0.30;0.30;;;;;;;-142.37;100.00;59669.53;5035319;28;20465;-69
2021/10/04 04:22:53;;;;;;;0.43;0.30;;;;;;;-142.37;100.00;59669.53;5035361;28;20022;-70
2021/10/04 04:25:19;;;;;;;2.20;0.40;;;;;;;-142.37;100.00;59669.53;5035304;28;20495;-70
2021/10/04 04:27:45;;;;;;;0.60;0.20;;;;;;;-142.37;100.00;59669.53;5035168;28;20456;-69
2021/10/04 04:30:13;;;;;;;0.20;0.20;;;;;;;-142.37;100.00;59669.53;5034086;28;20025;-69
2021/10/04 04:32:39;;;;;;;0.32;0.25;;;;;;;-142.37;100.00;59669.53;5035185;28;20468;-69
2021/10/04 04:35:05;;;;;;;0.17;0.17;;;;;;;-142.37;100.00;59669.53;5034814;28;20083;-69
2021/10/04 04:37:35;;;;;;;0.52;0.52;;;;;;;-142.37;100.00;59669.53;5034749;28;20028;-69
2021/10/04 04:40:02;;;;;;;0.68;0.30;;;;;;;-142.37;100.00;59669.53;5035119;28;20021;-70
2021/10/04 04:42:27;;;;;;;0.25;0.22;;;;;;;-142.37;100.00;59669.53;5034780;28;20025;-69
2021/10/04 04:44:53;;;;;;;0.20;0.20;;;;;;;-142.37;100.00;59669.53;5035142;28;20027;-69
2021/10/04 04:47:19;;;;;;;0.28;0.10;;;;;;;-142.37;100.00;59669.53;5017252;28;20068;-70
2021/10/04 04:49:44;;;;;;;0.47;0.20;;;;;;;-142.37;100.00;59669.53;5035016;28;20468;-70
2021/10/04 04:52:10;;;;;;;0.63;0.20;;;;;;;-142.37;100.00;59669.53;5034522;28;20032;-68
2021/10/04 04:54:35;;;;;;;1.08;0.40;;;;;;;-142.37;100.00;59669.53;5034728;28;20372;-70
2021/10/04 04:57:01;;;;;;;0.20;0.20;;;;;;;-142.37;100.00;59669.53;5034588;28;20032;-69
2021/10/04 04:59:28;;;;;;;0.45;0.38;;;;;;;-142.37;100.00;59669.53;5034575;28;20107;-70
2021/10/04 05:01:53;;;;;;;0.22;0.20;;;;;;;-142.37;100.00;59669.53;5034699;28;20084;-69
2021/10/04 05:04:19;;;;;;;2.05;0.20;;;;;;;-142.37;100.00;59669.53;5020498;28;20473;-69
2021/10/04 05:06:44;;;;;;;0.45;0.30;;;;;;;-142.37;100.00;59669.53;5014779;28;20053;-69
2021/10/04 05:09:10;;;;;;;0.93;0.40;;;;;;;-142.37;100.00;59669.53;5014441;28;20033;-69
2021/10/04 05:11:35;;;;;;;1.13;0.50;;;;;;;-142.37;100.00;59669.53;5014577;28;20072;-69
2021/10/04 05:14:01;;;;;;;0.50;0.50;;;;;;;-142.37;100.00;59669.53;5014649;28;20050;-69
2021/10/04 05:16:26;;;;;;;0.22;0.20;;;;;;;-142.37;100.00;59669.53;5014417;28;20456;-69
2021/10/04 05:18:52;;;;;;;0.20;0.20;;;;;;;-142.37;100.00;59669.53;5014773;28;20075;-69
2021/10/04 05:21:17;;;;;;;0.75;0.30;;;;;;;-142.37;100.00;59669.53;5014132;28;20383;-69
2021/10/04 05:23:42;;;;;;;0.20;0.20;;;;;;;-142.37;100.00;59669.53;5014519;28;20361;-69
2021/10/04 05:26:08;;;;;;;1.00;0.30;;;;;;;-142.37;100.00;59669.53;5014280;28;20030;-69
2021/10/04 05:28:33;;;;;;;0.40;0.20;;;;;;;-142.37;100.00;59669.53;5014257;28;20025;-69
2021/10/04 05:30:59;;;;;;;0.50;0.50;;;;;;;-142.37;100.00;59669.53;5014020;28;20412;-70
2021/10/04 05:33:24;;;;;;;1.08;0.30;;;;;;;-142.37;100.00;59669.53;5014238;28;20014;-70
2021/10/04 05:35:50;;;;;;;0.50;0.10;;;;;;;-142.37;100.00;59669.53;5014408;28;20061;-69
2021/10/04 05:38:15;;;;;;;0.35;0.20;;;;;;;-142.37;100.00;59669.53;5013947;28;20024;-69
2021/10/04 05:40:40;;;;;;;0.73;0.28;;;;;;;-142.37;100.00;59669.53;5014050;28;20461;-70
2021/10/04 05:43:06;;;;;;;1.38;0.50;;;;;;;-142.37;100.00;59669.53;5013819;28;20122;-69
2021/10/04 05:45:31;;;;;;;0.50;0.40;;;;;;;-142.37;100.00;59669.53;5014036;28;20057;-69
2021/10/04 05:47:58;;;;;;;0.85;0.30;;;;;;;-142.37;100.00;59669.53;5013977;28;20392;-69
2021/10/04 05:50:25;;;;;;;0.52;0.20;;;;;;;-142.37;100.00;59669.53;5013937;28;20026;-70
2021/10/04 05:52:52;;;;;;;0.35;0.35;;;;;;;-142.37;100.00;59669.53;5014078;28;20025;-69
2021/10/04 05:55:18;;;;;;;1.75;0.35;;;;;;;-142.37;100.00;59669.53;5013539;28;20051;-70
2021/10/04 05:57:44;;;;;;;0.20;0.20;;;;;;;-142.37;100.00;59669.53;5013940;28;20052;-69
2021/10/04 06:00:11;;;;;;;0.75;0.32;;;;;;;-142.37;100.00;59669.53;5013715;28;20022;-70
2021/10/04 06:02:37;;;;;;;0.15;0.10;;;;;;;-142.37;100.00;59669.53;5013855;28;20120;-69
2021/10/04 06:05:04;;;;;;;0.45;0.35;;;;;;;-142.37;100.00;59669.53;5013377;28;20109;-69
2021/10/04 06:07:29;;;;;;;1.05;0.30;;;;;;;-142.37;100.00;59669.53;5013832;28;20026;-69
2021/10/04 06:09:55;;;;;;;0.20;0.20;;;;;;;-142.37;100.00;59669.53;5013767;28;20535;-69
2021/10/04 06:12:26;;;;;;;0.40;0.20;;;;;;;-142.37;100.00;59669.53;5013576;28;20543;-70
2021/10/04 06:14:52;;;;;;;0.20;0.20;;;;;;;-142.37;100.00;59669.53;5013572;28;20088;-69
2021/10/04 06:17:17;;;;;;;0.38;0.38;;;;;;;-142.37;100.00;59669.53;5013666;28;20030;-70
2021/10/04 06:19:44;;;;;;;0.30;0.20;;;;;;;-142.37;100.00;59669.53;5013771;28;20054;-69
2021/10/04 06:22:09;;;;;;;0.40;0.20;;;;;;;-142.37;100.00;59669.53;5028403;28;20031;-69
2021/10/04 06:24:34;;;;;;;0.82;0.22;;;;;;;-142.37;100.00;59669.53;5032719;28;20025;-68
2021/10/04 06:27:00;;;;;;;0.30;0.30;;;;;;;-142.37;100.00;59669.53;5030952;28;20040;-68
2021/10/04 06:29:25;;;;;;;0.22;0.20;;;;;;;-142.37;100.00;59669.53;5031874;28;20519;-68
2021/10/04 06:31:50;;;;;;;0.60;0.30;;;;;;;-142.37;100.00;59669.53;5026347;28;20465;-68
2021/10/04 06:34:17;;;;;;;0.30;0.20;;;;;;;-142.37;100.00;59669.53;5027958;28;20017;-68
2021/10/04 06:36:42;;;;;;;0.20;0.20;;;;;;;-142.37;100.00;59669.53;5029147;28;20384;-68
2021/10/04 06:39:07;;;;;;;1.23;0.20;;;;;;;-142.37;100.00;59669.53;5013165;28;20029;-68
2021/10/04 06:41:33;;;;;;;0.63;0.28;;;;;;;-142.37;100.00;59669.53;5013085;28;20413;-68
2021/10/04 06:43:58;;;;;;;0.13;0.10;;;;;;;-142.37;100.00;59669.53;5024635;28;20029;-68
2021/10/04 06:46:24;;;;;;;0.30;0.20;;;;;;;-142.37;100.00;59669.53;5032494;28;20045;-69
2021/10/04 06:48:49;;;;;;;0.38;0.20;;;;;;;-142.37;100.00;59669.53;5032766;28;20112;-68
2021/10/04 06:51:14;;;;;;;0.30;0.30;;;;;;;-142.37;100.00;59669.53;5032202;28;20036;-67
2021/10/04 06:53:40;;;;;;;0.20;0.20;;;;;;;-142.37;100.00;59669.53;5036524;28;20026;-67
2021/10/04 06:56:06;;;;;;;0.30;0.20;;;;;;;-142.37;100.00;59669.53;5035238;28;20122;-68
2021/10/04 06:58:31;;;;;;;0.43;0.20;;;;;;;-142.37;100.00;59669.53;5036382;28;20518;-69
2021/10/04 07:00:57;;;;;;;0.40;0.20;;;;;;;-142.37;100.00;59669.53;5035704;28;20033;-67
2021/10/04 07:03:22;;;;;;;0.32;0.20;;;;;;;-142.37;100.00;59669.53;5035829;28;20026;-67
2021/10/04 07:05:48;;;;;;;0.52;0.30;;;;;;;-142.37;100.00;59669.53;5036211;28;20030;-69
2021/10/04 07:08:14;;;;;;;0.50;0.20;;;;;;;-142.37;100.00;59669.53;5035929;28;20025;-67
2021/10/04 07:10:41;;;;;;;0.20;0.20;;;;;;;-142.37;100.00;59669.53;5036218;28;20375;-69
2021/10/04 07:13:06;;;;;;;0.55;0.20;;;;;;;-142.37;100.00;59669.53;5034677;28;20080;-69
2021/10/04 07:15:31;;;;;;;1.15;0.40;;;;;;;-142.37;100.00;59669.53;5035910;28;20411;-68
2021/10/04 07:17:57;;;;;;;0.35;0.28;;;;;;;-142.37;100.00;59669.53;5019243;28;20037;-68
2021/10/04 07:20:22;;;;;;;0.22;0.22;;;;;;;-142.37;100.00;59669.53;5020599;28;20017;-68
2021/10/04 07:22:48;;;;;;;0.70;0.20;;;;;;;-142.37;100.00;59669.53;5034740;28;20022;-70
2021/10/04 07:25:15;;;;;;;0.40;0.20;;;;;;;-142.37;100.00;59669.53;5032140;28;20109;-69
2021/10/04 07:27:41;;;;;;;0.30;0.15;;;;;;;-142.37;100.00;59669.53;5018034;28;20071;-69
2021/10/04 07:30:08;;;;;;;1.88;0.35;;;;;;;-142.37;100.00;59669.53;5035933;28;20100;-69
2021/10/04 07:32:35;;;;;;;0.20;0.20;;;;;;;-142.37;100.00;59669.53;5035840;28;20028;-72
2021/10/04 07:35:01;;;;;;;0.52;0.10;;;;;;;-142.37;100.00;59669.53;5036650;28;20372;-72
2021/10/04 07:37:26;;;;;;;1.05;0.30;;;;;;;-142.37;100.00;59669.53;5036553;28;20029;-71
2021/10/04 07:39:54;;;;;;;0.60;0.50;;;;;;;-142.37;100.00;59669.53;5036536;28;20025;-73
2021/10/04 07:42:20;;;;;;;0.40;0.20;;;;;;;-142.37;100.00;59669.53;5025293;28;20540;-71
2021/10/04 07:44:45;;;;;;;0.30;0.30;;;;;;;-142.37;100.00;59669.53;5035633;28;20057;-73
2021/10/04 07:47:13;;;;;;;0.20;0.20;;;;;;;-142.37;100.00;59669.53;5036284;28;20029;-71
2021/10/04 07:49:39;;;;;;;0.40;0.20;;;;;;;-142.37;100.00;59669.53;5036090;28;20029;-71
2021/10/04 07:52:05;;;;;;;0.30;0.30;;;;;;;-142.37;100.00;59669.53;5035923;28;20375;-71
2021/10/04 07:54:32;;;;;;;0.75;0.40;;;;;;;-142.37;100.00;59669.53;5036271;28;20029;-72
2021/10/04 07:56:59;;;;;;;0.55;0.32;;;;;;;-142.37;100.00;59669.53;5036336;28;20543;-73
2021/10/04 07:59:24;;;;;;;0.20;0.20;;;;;;;-142.37;100.00;59669.53;5036776;28;20342;-72
2021/10/04 08:01:50;;;;;;;0.20;0.20;;;;;;;-142.37;100.00;59669.53;5036422;28;20491;-74
2021/10/04 08:04:18;;;;;;;0.45;0.30;;;;;;;-142.37;100.00;59669.53;5034800;28;20061;-72
2021/10/04 08:06:43;;;;;;;0.63;0.40;;;;;;;-142.37;100.00;59669.53;5036006;28;20025;-71
2021/10/04 08:09:09;;;;;;;0.15;0.15;;;;;;;-142.37;100.00;59669.53;5035997;28;20071;-72
2021/10/04 08:11:36;;;;;;;1.42;0.20;;;;;;;-142.37;100.00;59669.53;5035430;28;20056;-73
2021/10/04 08:14:02;;;;;;;0.40;0.20;;;;;;;-142.37;100.00;59669.53;5035927;28;20057;-72
2021/10/04 08:16:28;;;;;;;0.30;0.20;;;;;;;-142.37;100.00;59669.53;5036038;28;20157;-71
2021/10/04 08:18:55;;;;;;;0.50;0.30;;;;;;;-142.37;100.00;59669.53;5035994;28;20068;-72
2021/10/04 08:21:21;;;;;;;0.40;0.35;;;;;;;-142.37;100.00;59669.53;5035649;28;20017;-70
2021/10/04 08:23:49;;;;;;;0.20;0.15;;;;;;;-142.37;100.00;59669.53;5033756;28;20029;-72
2021/10/04 08:26:23;;;;;;;0.90;0.40;;;;;;;-142.37;100.00;59669.53;5025114;28;20033;-73
2021/10/04 08:28:53;;;;;;;0.98;0.30;;;;;;;-142.37;100.00;59669.53;5018232;28;20484;-73
2021/10/04 08:31:20;;;;;;;0.20;0.10;;;;;;;-142.37;100.00;59669.53;5035671;28;20033;-73
2021/10/04 08:33:50;;;;;;;0.30;0.30;;;;;;;-142.37;100.00;59669.53;5035612;28;20017;-72
2021/10/04 08:36:24;;;;;;;0.28;0.28;;;;;;;-142.37;100.00;59669.53;5035768;28;20022;-73
2021/10/04 08:38:50;;;;;;;;;;;;;;;-142.37;100.00;59669.53;5036015;28;20380;-71
2021/10/04 08:41:19;;;;;;;0.50;0.40;;;;;;;-142.37;100.00;59669.53;5035573;28;19947;-73
2021/10/04 08:43:49;;;;;;;0.95;0.30;;;;;;;-142.37;100.00;59669.53;5031681;28;20084;-72
2021/10/04 08:46:17;;;;;;;0.43;0.22;;;;;;;-142.37;100.00;59669.53;5035469;28;20100;-72
2021/10/04 08:48:52;;;;;;;0.17;0.13;;;;;;;-142.37;100.00;59669.53;5035482;28;20024;-72
2021/10/04 08:51:18;;;;;;;0.65;0.55;;;;;;;-142.37;100.00;59669.53;5035637;28;20032;-73
2021/10/04 08:53:45;;;;;;;0.50;0.20;;;;;;;-142.37;100.00;59669.53;5035436;28;20026;-72
2021/10/04 08:56:10;;;;;;;0.45;0.17;;;;;;;-142.37;100.00;59669.53;5035318;28;20025;-72
2021/10/04 08:58:38;;;;;;;0.30;0.30;;;;;;;-142.37;100.00;59669.53;5035307;28;20062;-72
2021/10/04 09:01:06;;;;;;;0.93;0.40;;;;;;;-142.37;100.00;59669.53;5035311;28;20121;-73
2021/10/04 09:03:55;;;;;;;0.47;0.20;;;;;;;-142.37;100.00;59669.53;5035019;28;20057;-72
2021/10/04 09:06:31;;;;;;;0.90;0.35;;;;;;;-142.37;100.00;59669.53;5015383;28;20045;-73
2021/10/04 09:09:07;;;;;;;0.20;0.20;;;;;;;-142.37;100.00;59669.53;5015358;28;20104;-73
2021/10/04 09:11:44;;;;;;;0.25;0.10;;;;;;;-142.37;100.00;59669.53;5016839;28;20030;-72
2021/10/04 09:14:31;;;;;;;0.20;0.20;;;;;;;-142.37;100.00;59669.53;5034555;28;20041;-72
2021/10/04 09:17:07;;;;;;;1.85;0.30;;;;;;;-142.37;100.00;59669.53;5034920;28;20419;-73
2021/10/04 09:19:41;;;;;;;0.30;0.10;;;;;;;-142.37;100.00;59669.53;5035210;28;20025;-70
2021/10/04 09:22:19;;;;;;;0.45;0.30;;;;;;;-142.37;100.00;59669.53;5034848;28;20025;-73
2021/10/04 09:24:47;;;;;;;0.47;0.30;;;;;;;-142.37;100.00;59669.53;5032929;28;20539;-70
2021/10/04 09:27:37;;;;;;;0.68;0.30;;;;;;;-142.37;100.00;59669.53;5033081;28;20030;-72
2021/10/04 09:30:07;;;;;;;0.10;0.10;;;;;;;-142.37;100.00;59669.53;5017445;28;20025;-71
2021/10/04 09:33:01;;;;;;;0.68;0.30;;;;;;;-142.37;100.00;59669.53;5034769;28;20021;-73
2021/10/04 09:35:29;;;;;;;0.30;0.25;;;;;;;-142.37;100.00;59669.53;4921813;29;20033;-72
2021/10/04 09:37:58;;;;;;;0.20;0.20;;;;;;;-142.37;100.00;59669.53;4928019;29;20040;-72
2021/10/04 09:41:02;;;;;;;0.77;0.30;;;;;;;-142.37;100.00;59669.53;4935288;29;20039;-71
2021/10/04 09:43:37;;;;;;;0.90;0.57;;;;;;;-142.37;100.00;59669.53;4878725;29;20049;-72
2021/10/04 09:46:08;;;;;;;0.20;0.10;;;;;;;-142.37;100.00;59669.53;4878878;29;20060;-72
2021/10/04 09:48:59;;;;;;;0.70;0.20;;;;;;;-142.37;100.00;59669.53;4879246;29;20025;-73
2021/10/04 09:51:25;;;;;;;0.30;0.30;;;;;;;-142.37;100.00;59669.53;4878838;29;20114;-72
2021/10/04 09:54:11;;;;;;;0.40;0.17;;;;;;;-142.37;100.00;59669.53;4878715;29;20073;-72
2021/10/04 09:56:49;;;;;;;1.10;0.35;;;;;;;-142.37;100.00;59669.53;4862992;29;20114;-72
2021/10/04 09:59:16;;;;;;;0.17;0.15;;;;;;;-142.37;100.00;59669.53;4878533;29;20041;-71
2021/10/04 10:02:16;;;;;;;0.30;0.20;;;;;;;-142.37;100.00;59669.53;4878578;29;20494;-73
2021/10/04 10:04:45;;;;;;;1.80;0.55;;;;;;;-142.37;100.00;59669.53;4878097;29;20048;-72
2021/10/04 10:07:10;;;;;;;0.38;0.38;;;;;;;-142.37;100.00;59669.53;4878521;29;20368;-71
2021/10/04 10:09:41;;;;;;;0.95;0.50;;;;;;;-142.37;100.00;59669.53;4878399;29;20166;-72
2021/10/04 10:12:23;;;;;;;0.50;0.40;;;;;;;-142.37;100.00;59669.53;4897005;29;20042;-72
2021/10/04 10:14:49;;;;;;;1.85;0.40;;;;;;;-142.37;100.00;59669.53;4953911;29;20043;-72
2021/10/04 10:17:20;;;;;;;0.20;0.20;;;;;;;-142.37;100.00;59669.53;4962846;28;20085;-71
2021/10/04 10:19:51;;;;;;;0.70;0.40;;;;;;;-142.37;100.00;59669.53;4957127;28;20123;-72
2021/10/04 10:22:19;;;;;;;0.60;0.20;;;;;;;-142.37;100.00;59669.53;4973132;28;20034;-71
2021/10/04 10:24:48;;;;;;;0.55;0.30;;;;;;;-142.37;100.00;59669.53;4973412;28;20031;-72
2021/10/04 10:27:14;;;;;;;1.25;0.10;;;;;;;-142.37;100.00;59669.53;4956494;28;20575;-71
2021/10/04 10:29:41;;;;;;;1.10;0.30;;;;;;;-142.37;100.00;59669.53;4973114;28;20038;-71
2021/10/04 10:32:13;;;;;;;0.43;0.43;;;;;;;-142.37;100.00;59669.53;4957152;28;20027;-72
2021/10/04 10:34:40;;;;;;;0.82;0.20;;;;;;;-142.37;100.00;59669.53;4956955;28;20553;-71
2021/10/04 10:37:15;;;;;;;0.50;0.40;;;;;;;-142.37;100.00;59669.53;4973102;28;20106;-73
2021/10/04 10:39:51;;;;;;;0.35;0.20;;;;;;;-142.37;100.00;59669.53;4973150;28;20485;-70
2021/10/04 10:42:28;;;;;;;0.35;0.20;;;;;;;-142.37;100.00;59669.53;5033935;28;20095;-73
2021/10/04 10:44:57;;;;;;;0.90;0.30;;;;;;;-142.37;100.00;59669.53;5034231;28;20464;-71
2021/10/04 10:47:39;;;;;;;0.40;0.22;;;;;;;-142.37;100.00;59669.53;5033945;28;20026;-73
2021/10/04 10:50:27;;;;;;;0.30;0.20;;;;;;;-142.37;100.00;59669.53;5033690;28;20045;-71
2021/10/04 10:52:55;;;;;;;0.30;0.20;;;;;;;-142.37;100.00;59669.53;5033891;28;20088;-72
2021/10/04 10:56:04;;;;;;;0.38;0.38;;;;;;;-142.37;100.00;59669.53;5033704;28;20034;-73
2021/10/04 10:58:34;;;;;;;0.38;0.38;;;;;;;-142.37;100.00;59669.53;4972943;28;20185;-72
2021/10/04 11:01:13;;;;;;;0.50;0.25;;;;;;;-142.37;100.00;59669.53;4973126;28;20555;-72
2021/10/04 11:03:51;;;;;;;1.00;0.15;;;;;;;-142.37;100.00;59669.53;4972823;28;20039;-72
2021/10/04 11:06:17;;;;;;;0.85;0.30;;;;;;;-142.37;100.00;59669.53;4972911;28;20037;-72
2021/10/04 11:09:02;;;;;;;0.38;0.20;;;;;;;-142.37;100.00;59669.53;4972969;28;20027;-71
2021/10/04 11:11:37;;;;;;;0.82;0.30;;;;;;;-142.37;100.00;59669.53;4972167;28;20117;-72